Time;durP1;ratioP1;P1;durP2;ratioP2;P2;SDS_P1;SDS_P2;PMS_P1;PMS_P2;Temp;Humidity;BMP_temperature;BMP_pressure;BME280_temperature;BME280_humidity;BME280_pressure;Samples;Min_cycle;Max_cycle;Signal;HPM_P1;HPM_P2
2022/10/26 00:02:06;;;;;;;;;;;;;;;11.47;83.30;101325.91;5023269;28;19917;-58
2022/10/26 00:04:32;;;;;;;;;;;;;;;11.48;83.50;101324.94;5028061;28;20031;-58
2022/10/26 00:06:57;;;;;;;;;;;;;;;11.47;83.25;101324.09;5027335;28;19992;-59
2022/10/26 00:09:22;;;;;;;;;;;;;;;11.47;83.05;101324.09;5024716;28;20411;-58
2022/10/26 00:11:47;;;;;;;;;;;;;;;11.46;83.16;101317.13;5025330;28;19917;-59
2022/10/26 00:14:12;;;;;;;;;;;;;;;11.48;83.23;101319.59;5026019;28;19964;-58
2022/10/26 00:16:37;;;;;;;;;;;;;;;11.48;83.54;101312.47;5024511;28;19925;-58
2022/10/26 00:19:03;;;;;;;;;;;;;;;11.48;83.31;101301.81;5025022;28;19925;-58
2022/10/26 00:21:28;;;;;;;;;;;;;;;11.51;83.60;101305.16;5024464;28;19956;-57
2022/10/26 00:23:53;;;;;;;;;;;;;;;11.51;83.77;101299.81;5024925;28;19951;-56
2022/10/26 00:26:18;;;;;;;;;;;;;;;11.53;84.29;101297.81;5025499;28;19917;-58
2022/10/26 00:28:43;;;;;;;;;;;;;;;11.53;83.93;101289.84;5026419;28;19960;-58
2022/10/26 00:31:13;;;;;;;;;;;;;;;11.55;84.57;101286.03;5024791;28;19921;-59
2022/10/26 00:33:38;;;;;;;;;;;;;;;11.57;84.46;101291.22;5022885;28;20264;-58
2022/10/26 00:36:03;;;;;;;;;;;;;;;11.58;84.61;101279.56;5026931;28;20558;-58
2022/10/26 00:38:28;;;;;;;;;;;;;;;11.61;84.74;101276.56;5026991;28;19930;-58
2022/10/26 00:40:54;;;;;;;;;;;;;;;11.64;84.61;101276.25;5024994;28;19921;-58
2022/10/26 00:43:22;;;;;;;;;;;;;;;11.66;84.52;101282.22;5025576;28;21610;-59
2022/10/26 00:45:48;;;;;;;;;;;;;;;11.69;84.28;101277.38;5027629;28;19925;-59
2022/10/26 00:48:19;;;;;;;;;;;;;;;11.71;84.78;101269.25;5030188;28;19924;-58
2022/10/26 00:50:46;;;;;;;;;;;;;;;11.75;84.83;101265.25;5027962;28;20388;-59
2022/10/26 00:53:11;;;;;;;;;;;;;;;11.76;84.73;101253.59;5028703;28;20415;-59
2022/10/26 00:55:38;;;;;;;;;;;;;;;11.78;85.15;101268.44;5031132;28;19923;-58
2022/10/26 00:58:05;;;;;;;;;;;;;;;11.80;84.72;101284.22;5026509;28;19995;-59
2022/10/26 01:00:30;;;;;;;;;;;;;;;11.80;85.18;101294.88;5027744;28;19944;-59
2022/10/26 01:02:58;;;;;;;;;;;;;;;11.80;85.19;101289.53;5031120;28;20618;-59
2022/10/26 01:05:24;;;;;;;;;;;;;;;11.82;84.86;101287.53;5029053;28;19952;-58
2022/10/26 01:07:50;;;;;;;;;;;;;;;11.85;84.78;101292.53;5029374;28;20079;-58
2022/10/26 01:10:15;;;;;;;;;;;;;;;11.86;84.56;101282.75;5025380;28;20499;-58
2022/10/26 01:12:41;;;;;;;;;;;;;;;11.87;84.67;101281.75;5025649;28;19971;-59
2022/10/26 01:15:06;;;;;;;;;;;;;;;11.86;84.71;101280.91;5029368;28;19921;-59
2022/10/26 01:17:46;;;;;;;;;;;;;;;11.85;84.58;101273.06;5027664;28;19925;-58
2022/10/26 01:20:38;;;;;;;;;;;;;;;11.84;84.59;101266.91;5026414;28;20003;-58
2022/10/26 01:23:18;;;;;;;;;;;;;;;11.78;84.84;101246.31;5029002;28;20019;-57
2022/10/26 01:26:02;;;;;;;;;;;;;;;11.81;85.00;101255.78;5025887;28;20080;-58
2022/10/26 01:28:30;;;;;;;;;;;;;;;11.78;85.28;101249.81;5027415;28;19940;-59
2022/10/26 01:30:58;;;;;;;;;;;;;;;11.77;85.19;101239.28;5027010;28;19917;-58
2022/10/26 01:33:30;;;;;;;;;;;;;;;11.76;85.78;101240.28;5028961;28;19955;-58
2022/10/26 01:36:12;;;;;;;;;;;;;;;11.76;85.68;101251.78;5026336;28;19986;-58
2022/10/26 01:38:54;;;;;;;;;;;;;;;11.75;85.49;101243.97;5025752;28;20367;-59
2022/10/26 01:41:26;;;;;;;;;;;;;;;11.76;85.47;101249.09;5027612;28;19917;-58
2022/10/26 01:43:55;;;;;;;;;;;;;;;11.77;85.03;101250.78;5030943;28;20016;-58
2022/10/26 01:46:21;;;;;;;;;;;;;;;11.78;85.21;101251.63;5028528;28;19928;-58
2022/10/26 01:48:48;;;;;;;;;;;;;;;11.80;85.07;101244.31;5032062;28;19951;-59
2022/10/26 01:51:14;;;;;;;;;;;;;;;11.80;85.64;101233.66;5026294;28;19928;-59
2022/10/26 01:53:44;;;;;;;;;;;;;;;11.82;85.37;101237.00;5031264;28;19921;-58
2022/10/26 01:56:17;;;;;;;;;;;;;;;11.83;85.40;101232.50;5028818;28;19921;-59
2022/10/26 01:58:45;;;;;;;;;;;;;;;11.84;85.10;101232.31;5025316;28;20036;-59
2022/10/26 02:01:34;;;;;;;;;;;;;;;11.85;85.29;101227.84;5027073;28;19921;-58
2022/10/26 02:04:18;;;;;;;;;;;;;;;11.86;85.46;101224.19;5028465;28;20273;-59
2022/10/26 02:07:03;;;;;;;;;;;;;;;11.86;85.60;101217.03;5031695;28;19940;-57
2022/10/26 02:09:47;;;;;;;;;;;;;;;11.87;85.46;101221.38;5027601;28;19943;-57
2022/10/26 02:12:17;;;;;;;;;;;;;;;11.87;85.84;101213.38;5026236;28;20377;-58
2022/10/26 02:14:46;;;;;;;;;;;;;;;11.89;85.48;101216.69;5026456;28;19932;-58
2022/10/26 02:17:17;;;;;;;;;;;;;;;11.88;85.40;101214.22;5027193;28;19917;-59
2022/10/26 02:19:45;;;;;;;;;;;;;;;11.88;85.53;101223.03;5027468;28;19925;-59
2022/10/26 02:22:10;;;;;;;;;;;;;;;11.90;85.25;101225.53;5027653;28;19999;-58
2022/10/26 02:24:36;;;;;;;;;;;;;;;11.88;85.29;101215.03;5025339;28;19968;-58
2022/10/26 02:27:04;;;;;;;;;;;;;;;11.86;85.51;101213.56;5029015;28;19970;-59
2022/10/26 02:29:30;;;;;;;;;;;;;;;11.84;85.27;101220.84;5027836;28;19925;-58
2022/10/26 02:31:56;;;;;;;;;;;;;;;11.82;85.58;101213.03;5027230;28;20388;-58
2022/10/26 02:34:23;;;;;;;;;;;;;;;11.81;85.45;101214.03;5029651;28;19929;-57
2022/10/26 02:36:49;;;;;;;;;;;;;;;11.78;85.54;101207.22;5027340;28;19924;-58
2022/10/26 02:39:15;;;;;;;;;;;;;;;11.77;85.76;101207.38;5024925;28;19925;-59
2022/10/26 02:41:43;;;;;;;;;;;;;;;11.77;85.58;101204.72;5027158;28;20041;-58
2022/10/26 02:44:13;;;;;;;;;;;;;;;11.76;85.43;101201.22;5025797;28;19917;-58
2022/10/26 02:46:38;;;;;;;;;;;;;;;11.76;85.35;101198.56;5023623;28;19971;-59
2022/10/26 02:49:04;;;;;;;;;;;;;;;11.77;85.30;101192.22;5024460;28;20357;-58
2022/10/26 02:51:29;;;;;;;;;;;;;;;11.79;85.67;101202.72;5027967;28;19921;-58
2022/10/26 02:54:00;;;;;;;;;;;;;;;11.81;85.28;101191.91;5027737;28;20380;-59
2022/10/26 02:56:44;;;;;;;;;;;;;;;11.81;85.82;101189.25;5027256;28;19928;-58
2022/10/26 02:59:11;;;;;;;;;;;;;;;11.81;85.62;101184.75;5020056;28;19917;-58
2022/10/26 03:01:37;;;;;;;;;;;;;;;11.81;85.33;101184.75;5028340;28;20373;-58
2022/10/26 03:04:02;;;;;;;;;;;;;;;11.82;85.48;101189.09;5027566;28;19925;-58
2022/10/26 03:06:27;;;;;;;;;;;;;;;11.84;85.81;101188.91;5026299;28;19952;-58
2022/10/26 03:08:52;;;;;;;;;;;;;;;11.85;85.54;101195.91;5027367;28;20011;-58
2022/10/26 03:11:18;;;;;;;;;;;;;;;11.87;85.60;101188.59;5027920;28;19928;-57
2022/10/26 03:13:43;;;;;;;;;;;;;;;11.89;85.64;101191.91;5027851;28;19921;-58
2022/10/26 03:16:09;;;;;;;;;;;;;;;11.89;85.92;101187.44;5025848;28;19917;-58
2022/10/26 03:18:34;;;;;;;;;;;;;;;11.91;85.81;101187.25;5026550;28;19971;-56
2022/10/26 03:20:59;;;;;;;;;;;;;;;11.92;85.70;101191.56;5026537;28;19932;-59
2022/10/26 03:23:24;;;;;;;;;;;;;;;11.93;85.62;101188.75;5026426;28;20027;-58
2022/10/26 03:25:50;;;;;;;;;;;;;;;11.93;85.60;101183.44;5027545;28;19921;-59
2022/10/26 03:28:15;;;;;;;;;;;;;;;11.93;85.96;101186.09;5025047;28;19971;-57
2022/10/26 03:30:40;;;;;;;;;;;;;;;11.95;85.81;101180.59;5026206;28;19956;-57
2022/10/26 03:33:05;;;;;;;;;;;;;;;11.95;85.71;101181.41;5025993;28;19928;-59
2022/10/26 03:35:30;;;;;;;;;;;;;;;11.95;85.65;101184.09;5024112;28;19921;-59
2022/10/26 03:37:56;;;;;;;;;;;;;;;11.94;85.55;101179.75;5026552;28;19917;-59
2022/10/26 03:40:21;;;;;;;;;;;;;;;11.95;85.58;101185.91;5035589;28;19917;-58
2022/10/26 03:42:46;;;;;;;;;;;;;;;11.95;85.48;101176.09;5030829;28;19967;-58
2022/10/26 03:45:11;;;;;;;;;;;;;;;11.96;85.84;101174.25;5029061;28;20002;-59
2022/10/26 03:47:47;;;;;;;;;;;;;;;11.96;85.49;101176.94;5028806;28;19992;-60
2022/10/26 03:50:13;;;;;;;;;;;;;;;11.97;85.81;101174.09;5033304;28;19913;-59
2022/10/26 03:52:39;;;;;;;;;;;;;;;11.97;85.37;101167.94;5029308;28;19913;-59
2022/10/26 03:55:04;;;;;;;;;;;;;;;11.97;85.48;101168.75;5026678;28;19923;-57
2022/10/26 03:57:29;;;;;;;;;;;;;;;11.97;85.59;101167.94;5027544;28;19917;-57
2022/10/26 03:59:54;;;;;;;;;;;;;;;11.97;85.56;101170.59;5027385;28;19967;-58
2022/10/26 04:02:19;;;;;;;;;;;;;;;11.95;85.51;101170.78;5027201;28;19913;-58
2022/10/26 04:04:45;;;;;;;;;;;;;;;11.94;85.70;101174.44;5027885;28;19913;-59
2022/10/26 04:07:10;;;;;;;;;;;;;;;11.91;85.72;101172.13;5027834;28;20363;-58
2022/10/26 04:09:35;;;;;;;;;;;;;;;11.91;85.70;101168.63;5032589;28;19921;-58
2022/10/26 04:12:00;;;;;;;;;;;;;;;11.90;85.80;101183.75;5029181;28;19943;-58
2022/10/26 04:14:25;;;;;;;;;;;;;;;11.90;85.88;101182.94;5032259;28;20051;-58
2022/10/26 04:16:50;;;;;;;;;;;;;;;11.88;86.13;101177.78;5031929;28;19913;-59
2022/10/26 04:19:16;;;;;;;;;;;;;;;11.87;85.98;101177.97;5027153;28;19925;-58
2022/10/26 04:21:41;;;;;;;;;;;;;;;11.87;85.44;101177.97;5040921;28;19960;-59
2022/10/26 04:24:06;;;;;;;;;;;;;;;11.86;85.91;101176.31;5033563;28;19917;-58
2022/10/26 04:26:31;;;;;;;;;;;;;;;11.85;85.49;101177.28;5032392;28;19960;-58
2022/10/26 04:28:56;;;;;;;;;;;;;;;11.85;85.20;101175.44;5039596;28;20078;-58
2022/10/26 04:31:22;;;;;;;;;;;;;;;11.85;85.47;101171.94;5033633;28;19936;-58
2022/10/26 04:33:47;;;;;;;;;;;;;;;11.83;85.56;101158.81;5034986;28;20316;-58
2022/10/26 04:36:12;;;;;;;;;;;;;;;11.84;85.95;101165.78;5030620;28;19922;-59
2022/10/26 04:38:37;;;;;;;;;;;;;;;11.84;85.84;101163.13;5028513;28;20008;-59
2022/10/26 04:41:02;;;;;;;;;;;;;;;11.83;86.24;101161.47;5026295;28;19981;-59
2022/10/26 04:43:28;;;;;;;;;;;;;;;11.84;86.22;101163.13;5037187;28;19921;-57
2022/10/26 04:45:53;;;;;;;;;;;;;;;11.86;86.17;101160.34;5031375;28;19917;-58
2022/10/26 04:48:19;;;;;;;;;;;;;;;11.87;85.92;101162.81;5030542;28;19963;-58
2022/10/26 04:50:44;;;;;;;;;;;;;;;11.88;86.24;101161.00;5029695;28;19971;-58
2022/10/26 04:53:09;;;;;;;;;;;;;;;11.89;86.24;101160.00;5028751;28;19967;-58
2022/10/26 04:55:34;;;;;;;;;;;;;;;11.83;86.36;101150.84;5025289;28;19921;-58
2022/10/26 04:58:00;;;;;;;;;;;;;;;11.91;86.60;101158.81;5031705;28;19921;-57
2022/10/26 05:00:25;;;;;;;;;;;;;;;11.93;86.42;101163.97;5026932;28;19917;-57
2022/10/26 05:02:51;;;;;;;;;;;;;;;11.93;86.40;101167.47;5020243;28;20361;-59
2022/10/26 05:05:16;;;;;;;;;;;;;;;11.95;86.25;101164.63;5031836;28;19920;-59
2022/10/26 05:07:41;;;;;;;;;;;;;;;11.95;86.44;101161.97;5029152;28;19917;-58
2022/10/26 05:10:06;;;;;;;;;;;;;;;11.96;86.22;101163.63;5033009;28;20366;-58
2022/10/26 05:12:32;;;;;;;;;;;;;;;11.96;86.08;101164.44;5026526;28;19976;-58
2022/10/26 05:14:58;;;;;;;;;;;;;;;11.95;86.13;101160.13;5026562;28;19917;-59
2022/10/26 05:17:26;;;;;;;;;;;;;;;11.96;86.33;101166.28;5026920;28;19929;-59
2022/10/26 05:19:54;;;;;;;;;;;;;;;11.97;86.58;101162.63;5025666;28;20345;-58
2022/10/26 05:22:28;;;;;;;;;;;;;;;11.97;86.47;101171.44;5026916;28;20558;-57
2022/10/26 05:24:53;;;;;;;;;;;;;;;11.96;86.65;101169.78;5030038;28;19979;-57
2022/10/26 05:27:19;;;;;;;;;;;;;;;11.96;86.22;101169.78;5030176;28;20388;-56
2022/10/26 05:29:44;;;;;;;;;;;;;;;11.97;86.69;101170.59;5032689;28;19925;-58
2022/10/26 05:32:09;;;;;;;;;;;;;;;11.97;86.62;101173.25;5028275;28;20373;-58
2022/10/26 05:34:35;;;;;;;;;;;;;;;11.97;86.75;101179.41;5032441;28;19978;-59
2022/10/26 05:37:00;;;;;;;;;;;;;;;11.97;86.59;101184.75;5030812;28;19917;-59
2022/10/26 05:39:25;;;;;;;;;;;;;;;11.97;86.84;101184.75;5035049;28;19966;-59
2022/10/26 05:41:50;;;;;;;;;;;;;;;11.96;86.60;101183.06;5027803;28;19917;-58
2022/10/26 05:44:15;;;;;;;;;;;;;;;11.98;86.83;101180.25;5036254;28;19999;-59
2022/10/26 05:46:40;;;;;;;;;;;;;;;11.98;86.71;101182.91;5025494;28;20034;-57
2022/10/26 05:49:06;;;;;;;;;;;;;;;11.99;86.56;101188.06;5026864;28;19921;-58
2022/10/26 05:51:32;;;;;;;;;;;;;;;11.99;86.60;101190.72;5025289;28;19924;-58
2022/10/26 05:53:57;;;;;;;;;;;;;;;12.00;86.58;101184.38;5030025;28;19921;-59
2022/10/26 05:56:31;;;;;;;;;;;;;;;12.00;86.58;101184.38;5027106;28;19925;-58
2022/10/26 05:58:57;;;;;;;;;;;;;;;12.00;86.77;101187.06;5031294;28;19924;-59
2022/10/26 06:01:34;;;;;;;;;;;;;;;12.00;86.85;101184.38;5024218;28;19937;-59
2022/10/26 06:04:01;;;;;;;;;;;;;;;12.01;86.77;101194.03;5027712;28;20300;-59
2022/10/26 06:06:27;;;;;;;;;;;;;;;12.00;86.76;101192.38;5029840;28;20376;-58
2022/10/26 06:08:53;;;;;;;;;;;;;;;12.02;86.75;101200.19;5027524;28;20431;-57
2022/10/26 06:11:18;;;;;;;;;;;;;;;12.02;86.66;101193.03;5029116;28;20051;-59
2022/10/26 06:13:43;;;;;;;;;;;;;;;12.04;86.82;101201.69;5028814;28;20395;-59
2022/10/26 06:16:25;;;;;;;;;;;;;;;12.05;86.29;101198.00;5029900;28;20273;-59
2022/10/26 06:18:50;;;;;;;;;;;;;;;12.06;86.57;101202.34;5026257;28;19920;-58
2022/10/26 06:21:15;;;;;;;;;;;;;;;12.07;86.86;101203.16;5030583;28;19917;-58
2022/10/26 06:23:48;;;;;;;;;;;;;;;12.08;86.53;101208.31;5034560;28;19931;-59
2022/10/26 06:26:13;;;;;;;;;;;;;;;12.10;86.94;101200.97;5029764;28;19921;-59
2022/10/26 06:28:44;;;;;;;;;;;;;;;12.11;86.73;101201.81;5030300;28;19920;-59
2022/10/26 06:31:11;;;;;;;;;;;;;;;12.12;86.88;101199.97;5024779;28;19917;-58
2022/10/26 06:33:36;;;;;;;;;;;;;;;12.12;87.11;101195.50;5027864;28;19921;-58
2022/10/26 06:36:10;;;;;;;;;;;;;;;12.14;86.88;101203.31;5026448;28;19932;-57
2022/10/26 06:38:36;;;;;;;;;;;;;;;12.13;87.09;101201.63;5021304;28;19973;-59
2022/10/26 06:41:02;;;;;;;;;;;;;;;12.15;86.94;101202.31;5023666;28;19917;-57
2022/10/26 06:43:30;;;;;;;;;;;;;;;12.15;86.84;101205.00;5025171;28;19998;-58
2022/10/26 06:45:59;;;;;;;;;;;;;;;12.16;86.94;101193.34;5025506;28;19963;-59
2022/10/26 06:48:27;;;;;;;;;;;;;;;12.17;86.81;101192.34;5029929;28;20415;-58
2022/10/26 06:50:52;;;;;;;;;;;;;;;12.18;87.09;101197.47;5020091;28;19952;-58
2022/10/26 06:53:25;;;;;;;;;;;;;;;12.18;87.40;101194.81;5025264;28;19952;-58
2022/10/26 06:55:51;;;;;;;;;;;;;;;12.21;87.18;101188.31;5027969;28;19921;-58
2022/10/26 06:58:17;;;;;;;;;;;;;;;12.23;87.27;101181.00;5029483;28;20363;-58
2022/10/26 07:00:47;;;;;;;;;;;;;;;12.23;87.45;101191.63;5022764;28;19917;-58
2022/10/26 07:03:12;;;;;;;;;;;;;;;12.26;87.35;101193.94;5026776;28;19924;-56
2022/10/26 07:05:37;;;;;;;;;;;;;;;12.27;87.25;101193.78;5029740;28;19999;-57
2022/10/26 07:08:03;;;;;;;;;;;;;;;12.30;87.24;101193.44;5022830;28;19921;-59
2022/10/26 07:10:28;;;;;;;;;;;;;;;12.33;87.01;101193.06;5024860;28;19924;-58
2022/10/26 07:12:53;;;;;;;;;;;;;;;12.35;87.31;101193.75;5028158;28;19996;-59
2022/10/26 07:15:19;;;;;;;;;;;;;;;12.36;87.35;101206.06;5027269;28;19921;-58
2022/10/26 07:17:45;;;;;;;;;;;;;;;12.39;87.09;101208.38;5024641;28;19976;-59
2022/10/26 07:20:11;;;;;;;;;;;;;;;12.42;87.16;101212.50;5027373;28;19921;-59
2022/10/26 07:22:36;;;;;;;;;;;;;;;12.46;86.88;101221.00;5029121;28;19924;-58
2022/10/26 07:25:01;;;;;;;;;;;;;;;12.48;86.99;101227.00;5027889;28;19921;-59
2022/10/26 07:27:27;;;;;;;;;;;;;;;12.51;87.29;101232.81;5026630;28;19928;-58
2022/10/26 07:29:52;;;;;;;;;;;;;;;12.56;87.58;101233.09;5026509;28;19917;-57
2022/10/26 07:32:17;;;;;;;;;;;;;;;12.62;87.64;101237.72;5028624;28;19913;-57
2022/10/26 07:34:42;;;;;;;;;;;;;;;12.70;87.96;101235.00;5025640;28;20466;-59
2022/10/26 07:37:07;;;;;;;;;;;;;;;12.77;87.61;101232.50;5027957;28;19918;-58
2022/10/26 07:39:32;;;;;;;;;;;;;;;12.84;87.45;101235.28;5027500;28;20300;-58
2022/10/26 07:41:58;;;;;;;;;;;;;;;12.91;87.72;101234.41;5028135;28;19917;-59
2022/10/26 07:44:23;;;;;;;;;;;;;;;12.97;87.04;101232.88;5021290;28;19995;-58
2022/10/26 07:46:48;;;;;;;;;;;;;;;13.05;87.46;101235.50;5027483;28;20385;-58
2022/10/26 07:49:13;;;;;;;;;;;;;;;13.13;87.15;101240.78;5019059;28;19924;-58
2022/10/26 07:51:38;;;;;;;;;;;;;;;13.24;87.19;101250.22;5026385;28;20327;-58
2022/10/26 07:54:03;;;;;;;;;;;;;;;13.35;87.90;101262.31;5022350;28;20015;-58
2022/10/26 07:56:29;;;;;;;;;;;;;;;13.44;87.95;101277.25;5026660;28;20343;-58
2022/10/26 07:58:54;;;;;;;;;;;;;;;13.47;87.31;101269.72;5026254;28;19956;-59
2022/10/26 08:01:20;;;;;;;;;;;;;;;13.51;87.11;101270.19;5024131;28;20377;-58
2022/10/26 08:03:45;;;;;;;;;;;;;;;13.55;87.35;101266.16;5027346;28;20450;-58
2022/10/26 08:06:10;;;;;;;;;;;;;;;13.59;87.10;101270.13;5028253;28;19953;-58
2022/10/26 08:08:36;;;;;;;;;;;;;;;13.60;87.25;101272.63;5020917;28;20325;-58
2022/10/26 08:11:01;;;;;;;;;;;;;;;13.61;87.08;101273.47;5030191;28;19920;-59
2022/10/26 08:13:26;;;;;;;;;;;;;;;13.64;87.09;101283.78;5026669;28;20384;-58
2022/10/26 08:15:55;;;;;;;;;;;;;;;13.69;87.14;101283.22;5025683;28;19918;-58
2022/10/26 08:18:20;;;;;;;;;;;;;;;13.76;87.28;101290.31;5026493;28;20388;-58
2022/10/26 08:20:46;;;;;;;;;;;;;;;13.82;87.75;101281.59;5031874;28;19913;-58
2022/10/26 08:23:11;;;;;;;;;;;;;;;13.90;87.66;101273.53;5026733;28;19924;-58
2022/10/26 08:25:36;;;;;;;;;;;;;;;13.98;87.55;101283.28;5037066;28;20008;-59
2022/10/26 08:28:02;;;;;;;;;;;;;;;14.05;87.60;101272.69;5027164;28;19920;-58
2022/10/26 08:30:27;;;;;;;;;;;;;;;14.10;87.49;101283.66;5019208;28;19930;-58
2022/10/26 08:33:03;;;;;;;;;;;;;;;14.13;87.22;101291.31;5022442;28;19931;-58
2022/10/26 08:35:29;;;;;;;;;;;;;;;14.16;87.21;101291.75;5021609;28;20007;-59
2022/10/26 08:37:54;;;;;;;;;;;;;;;14.21;87.33;101297.41;5020655;28;20008;-57
2022/10/26 08:40:27;;;;;;;;;;;;;;;14.28;87.01;101300.19;5019426;28;19917;-58
2022/10/26 08:42:56;;;;;;;;;;;;;;;14.36;87.26;101292.06;5020161;28;20431;-58
2022/10/26 08:45:21;;;;;;;;;;;;;;;14.44;87.17;101297.34;5019253;28;20016;-58
2022/10/26 08:47:49;;;;;;;;;;;;;;;14.52;87.15;101291.91;5026046;28;20007;-58
2022/10/26 08:50:23;;;;;;;;;;;;;;;14.60;87.04;101300.84;5026759;28;19964;-58
2022/10/26 08:52:54;;;;;;;;;;;;;;;14.71;87.36;101301.19;5022007;28;19960;-58
2022/10/26 08:55:24;;;;;;;;;;;;;;;14.81;86.93;101296.41;5020787;28;19925;-57
2022/10/26 08:57:50;;;;;;;;;;;;;;;14.92;86.74;101283.56;5021699;28;19924;-57
2022/10/26 09:00:24;;;;;;;;;;;;;;;14.99;86.61;101287.13;5024925;28;19965;-57
2022/10/26 09:02:52;;;;;;;;;;;;;;;15.07;86.32;101281.69;5022267;28;20408;-59
2022/10/26 09:05:20;;;;;;;;;;;;;;;15.15;86.24;101277.03;5023947;28;19925;-57
2022/10/26 09:08:04;;;;;;;;;;;;;;;15.23;86.12;101277.94;5033615;28;19917;-57
2022/10/26 09:10:34;;;;;;;;;;;;;;;15.30;85.91;101276.97;5025142;28;20692;-57
2022/10/26 09:13:03;;;;;;;;;;;;;;;15.39;85.70;101281.19;5023795;28;19917;-57
2022/10/26 09:15:40;;;;;;;;;;;;;;;15.48;85.58;101290.75;5023647;28;19927;-57
2022/10/26 09:18:15;;;;;;;;;;;;;;;15.59;85.32;101300.13;5030860;28;19917;-58
2022/10/26 09:20:59;;;;;;;;;;;;;;;15.69;85.28;101310.53;5030011;28;19920;-58
2022/10/26 09:23:38;;;;;;;;;;;;;;;15.82;85.16;101309.81;5031304;28;20011;-59
2022/10/26 09:26:09;;;;;;;;;;;;;;;15.91;84.85;101309.50;5029824;28;19925;-59
2022/10/26 09:28:35;;;;;;;;;;;;;;;16.00;84.56;101320.88;5022293;28;19930;-59
2022/10/26 09:31:02;;;;;;;;;;;;;;;16.12;84.33;101338.06;5029702;28;20343;-58
2022/10/26 09:33:28;;;;;;;;;;;;;;;16.22;84.01;101335.06;5031337;28;20296;-59
2022/10/26 09:36:02;;;;;;;;;;;;;;;16.30;83.97;101333.06;5028401;28;20388;-59
2022/10/26 09:38:29;;;;;;;;;;;;;;;16.42;83.39;101349.41;5027224;28;20012;-59
2022/10/26 09:40:54;;;;;;;;;;;;;;;16.51;82.87;101355.47;5024777;28;20410;-59
2022/10/26 09:43:23;;;;;;;;;;;;;;;16.56;82.76;101351.19;5026278;28;19956;-59
2022/10/26 09:45:50;;;;;;;;;;;;;;;16.63;82.53;101356.56;5029275;28;19920;-58
2022/10/26 09:48:15;;;;;;;;;;;;;;;16.63;81.74;101370.81;5027612;28;19921;-59
2022/10/26 09:50:43;;;;;;;;;;;;;;;16.63;81.61;101368.13;5025591;28;19932;-59
2022/10/26 09:53:08;;;;;;;;;;;;;;;16.64;81.63;101366.28;5025336;28;20527;-58
2022/10/26 09:55:39;;;;;;;;;;;;;;;16.65;81.69;101357.19;5030659;28;20062;-59
2022/10/26 09:58:09;;;;;;;;;;;;;;;16.68;81.25;101362.19;5027290;28;19924;-59
2022/10/26 10:00:36;;;;;;;;;;;;;;;16.73;81.26;101362.41;5027957;28;19924;-58
2022/10/26 10:03:01;;;;;;;;;;;;;;;16.77;81.02;101366.38;5024041;28;20000;-57
2022/10/26 10:05:31;;;;;;;;;;;;;;;16.82;81.45;101369.31;5018504;28;20399;-57
2022/10/26 10:08:16;;;;;;;;;;;;;;;16.87;81.39;101372.22;5024691;28;19917;-58
2022/10/26 10:10:55;;;;;;;;;;;;;;;16.94;81.07;101389.16;5022993;28;20396;-58
2022/10/26 10:13:21;;;;;;;;;;;;;;;16.96;80.77;101399.69;5023724;28;19924;-58
2022/10/26 10:16:13;;;;;;;;;;;;;;;16.98;80.59;101395.78;5027343;28;19921;-59
2022/10/26 10:18:40;;;;;;;;;;;;;;;17.04;80.90;101399.50;5024929;28;19944;-59
2022/10/26 10:21:06;;;;;;;;;;;;;;;17.07;80.81;101399.16;5028363;28;19982;-59
2022/10/26 10:23:53;;;;;;;;;;;;;;;17.12;80.97;101409.28;5027881;28;19917;-59
2022/10/26 10:26:18;;;;;;;;;;;;;;;17.19;81.22;101412.81;5021056;28;19924;-58
2022/10/26 10:28:55;;;;;;;;;;;;;;;17.22;80.82;101417.78;5033913;28;19921;-58
2022/10/26 10:31:21;;;;;;;;;;;;;;;17.27;80.66;101418.00;5028995;28;20324;-59
2022/10/26 10:33:48;;;;;;;;;;;;;;;17.33;80.83;101434.13;5023938;28;19935;-59
2022/10/26 10:36:18;;;;;;;;;;;;;;;17.32;80.02;101421.72;5033971;28;19917;-59
2022/10/26 10:38:44;;;;;;;;;;;;;;;17.38;80.35;101436.25;5029891;28;20372;-58
2022/10/26 10:41:15;;;;;;;;;;;;;;;17.47;81.19;101429.66;5019431;28;20408;-59
2022/10/26 10:43:47;;;;;;;;;;;;;;;17.58;81.17;101447.03;5029294;28;19963;-57
2022/10/26 10:46:17;;;;;;;;;;;;;;;17.66;79.99;101441.50;5020550;28;20001;-58
2022/10/26 10:48:45;;;;;;;;;;;;;;;17.65;79.79;101448.72;5029607;28;20300;-58
2022/10/26 10:51:16;;;;;;;;;;;;;;;17.70;79.60;101458.06;5025066;28;19932;-57
2022/10/26 10:53:41;;;;;;;;;;;;;;;17.72;79.35;101453.31;5034045;28;20384;-58
2022/10/26 10:56:19;;;;;;;;;;;;;;;17.79;79.43;101462.22;5029547;28;19928;-59
2022/10/26 10:58:53;;;;;;;;;;;;;;;17.82;79.17;101457.25;5029512;28;19924;-57
2022/10/26 11:01:21;;;;;;;;;;;;;;;17.82;79.22;101467.19;5020099;28;19979;-57
2022/10/26 11:04:10;;;;;;;;;;;;;;;17.83;79.02;101472.34;5025927;28;19917;-58
2022/10/26 11:06:37;;;;;;;;;;;;;;;17.89;78.77;101493.03;5027508;28;20011;-58
2022/10/26 11:09:06;;;;;;;;;;;;;;;17.88;78.49;101482.47;5031841;28;20028;-59
2022/10/26 11:11:51;;;;;;;;;;;;;;;17.91;78.99;101487.44;5027002;28;20363;-58
2022/10/26 11:14:20;;;;;;;;;;;;;;;17.97;78.62;101477.78;5026578;28;19924;-58
2022/10/26 11:16:48;;;;;;;;;;;;;;;18.05;78.82;101488.31;5021489;28;19917;-58
2022/10/26 11:19:13;;;;;;;;;;;;;;;18.08;78.95;101491.44;5023556;28;20124;-58
2022/10/26 11:21:38;;;;;;;;;;;;;;;18.17;78.83;101495.56;5035424;28;19913;-57
2022/10/26 11:24:09;;;;;;;;;;;;;;;18.19;78.53;101492.69;5029443;28;19960;-59
2022/10/26 11:26:54;;;;;;;;;;;;;;;18.15;78.51;101507.56;5027041;28;19920;-58
2022/10/26 11:29:39;;;;;;;;;;;;;;;18.07;77.93;101511.28;5023906;28;19918;-58
2022/10/26 11:32:18;;;;;;;;;;;;;;;17.97;78.22;101507.34;5021981;28;19947;-58
2022/10/26 11:34:43;;;;;;;;;;;;;;;17.93;78.57;101497.00;5027245;28;20162;-56
2022/10/26 11:37:12;;;;;;;;;;;;;;;18.02;78.83;101503.00;5033567;28;19917;-58
2022/10/26 11:39:43;;;;;;;;;;;;;;;18.11;78.89;101504.47;5026203;28;20689;-59
2022/10/26 11:42:15;;;;;;;;;;;;;;;18.17;79.41;101498.25;5026378;28;19936;-58
2022/10/26 11:44:48;;;;;;;;;;;;;;;18.27;78.83;101501.41;5027186;28;19917;-58
2022/10/26 11:47:17;;;;;;;;;;;;;;;18.25;77.94;101498.09;5029947;28;19917;-59
2022/10/26 11:49:52;;;;;;;;;;;;;;;18.25;77.46;101503.47;5022765;28;19932;-58
2022/10/26 11:52:29;;;;;;;;;;;;;;;18.23;77.01;101499.31;5022704;28;19930;-58
2022/10/26 11:54:57;;;;;;;;;;;;;;;18.32;77.23;101503.47;5029735;28;20388;-59
2022/10/26 11:57:23;;;;;;;;;;;;;;;18.43;77.42;101513.59;5024280;28;19913;-58
2022/10/26 12:00:09;;;;;;;;;;;;;;;18.55;76.17;101506.59;5027306;28;19917;-58
2022/10/26 12:02:39;;;;;;;;;;;;;;;18.65;76.26;101511.59;5016582;28;19975;-58
2022/10/26 12:05:16;;;;;;;;;;;;;;;18.72;75.73;101503.50;5029298;28;20004;-58
2022/10/26 12:07:48;;;;;;;;;;;;;;;18.74;76.01;101498.72;5030513;28;20513;-58
2022/10/26 12:10:24;;;;;;;;;;;;;;;18.81;75.33;101508.47;5027080;28;19959;-59
2022/10/26 12:13:10;;;;;;;;;;;;;;;18.80;75.06;101516.75;5027741;28;19913;-59
2022/10/26 12:15:39;;;;;;;;;;;;;;;18.90;75.30;101519.84;5027559;28;20402;-58
2022/10/26 12:18:12;;;;;;;;;;;;;;;19.04;74.71;101524.16;5033557;28;19913;-58
2022/10/26 12:20:49;;;;;;;;;;;;;;;19.14;74.77;101526.44;5027582;28;19920;-58
2022/10/26 12:23:15;;;;;;;;;;;;;;;19.30;74.04;101528.66;5021328;28;19917;-59
2022/10/26 12:25:40;;;;;;;;;;;;;;;19.44;73.80;101526.78;5028822;28;20000;-59
2022/10/26 12:28:25;;;;;;;;;;;;;;;19.45;73.02;101531.97;5029360;28;19918;-59
2022/10/26 12:30:50;;;;;;;;;;;;;;;19.54;73.42;101534.44;5020531;28;19917;-58
2022/10/26 12:33:28;;;;;;;;;;;;;;;19.64;72.81;101534.81;5027110;28;19917;-59
2022/10/26 12:35:53;;;;;;;;;;;;;;;19.65;72.00;101536.47;5032705;28;19972;-58
2022/10/26 12:38:26;;;;;;;;;;;;;;;19.66;71.68;101536.28;5034451;28;19917;-58
2022/10/26 12:41:05;;;;;;;;;;;;;;;19.75;72.01;101544.94;5022644;28;19956;-59
2022/10/26 12:43:30;;;;;;;;;;;;;;;19.82;71.93;101540.34;5027165;28;19960;-59